Time;durP1;ratioP1;P1;durP2;ratioP2;P2;SDS_P1;SDS_P2;PMS_P1;PMS_P2;Temp;Humidity;BMP_temperature;BMP_pressure;BME280_temperature;BME280_humidity;BME280_pressure;Samples;Min_cycle;Max_cycle;Signal;HPM_P1;HPM_P2
2022/04/03 00:06:24;;;;;;;17.42;9.65;;;0.10;99.90;;;;;;20837668;28;20033;-74
2022/04/03 00:16:26;;;;;;;24.88;9.63;;;0.00;99.90;;;;;;20836650;28;20041;-74
2022/04/03 00:26:26;;;;;;;17.33;9.45;;;0.00;99.90;;;;;;20817947;28;20034;-74
2022/04/03 00:36:27;;;;;;;17.60;8.77;;;0.10;99.90;;;;;;20834199;28;20032;-74
2022/04/03 00:46:29;;;;;;;22.60;11.88;;;0.30;99.90;;;;;;20834476;28;20108;-74
2022/04/03 00:56:31;;;;;;;30.65;13.93;;;0.30;99.90;;;;;;20833135;28;20049;-74
2022/04/03 01:06:33;;;;;;;27.98;14.20;;;0.30;99.90;;;;;;20833680;28;20037;-74
2022/04/03 01:16:35;;;;;;;27.52;13.52;;;0.30;99.90;;;;;;20839913;28;20029;-74
2022/04/03 01:26:37;;;;;;;26.08;13.50;;;0.20;99.90;;;;;;20830960;28;20034;-74
2022/04/03 01:36:37;;;;;;;27.00;13.57;;;0.20;99.90;;;;;;20830294;28;20036;-73
2022/04/03 01:46:39;;;;;;;25.08;12.50;;;0.20;99.90;;;;;;20828155;28;20097;-74
2022/04/03 01:56:40;;;;;;;25.83;11.15;;;0.20;99.90;;;;;;20812752;28;20030;-74
2022/04/03 02:06:42;;;;;;;22.15;11.77;;;0.30;99.90;;;;;;20827479;28;20033;-74
2022/04/03 02:16:42;;;;;;;21.02;11.15;;;0.30;99.90;;;;;;20826923;28;20104;-74
2022/04/03 02:26:43;;;;;;;25.23;12.27;;;0.30;99.90;;;;;;20808340;28;20042;-74
2022/04/03 02:36:44;;;;;;;26.83;13.38;;;0.40;99.90;;;;;;20791426;28;20034;-74
2022/04/03 02:46:45;;;;;;;28.23;13.82;;;0.40;99.90;;;;;;20828404;28;20057;-73
2022/04/03 02:56:46;;;;;;;28.45;15.05;;;0.20;99.90;;;;;;20817521;28;20431;-74
2022/04/03 03:06:47;;;;;;;28.63;15.10;;;0.30;99.90;;;;;;20841892;28;20566;-73
2022/04/03 03:16:48;;;;;;;37.00;16.45;;;0.40;99.90;;;;;;20841139;28;20035;-73
2022/04/03 03:26:49;;;;;;;31.70;16.00;;;0.40;99.90;;;;;;20840322;28;20044;-73
2022/04/03 03:36:51;;;;;;;31.88;16.17;;;0.50;99.90;;;;;;20822990;28;20072;-74
2022/04/03 03:46:52;;;;;;;27.38;15.00;;;0.50;99.90;;;;;;20911361;22;20040;-78
2022/04/03 03:56:53;;;;;;;30.90;15.13;;;0.50;99.90;;;;;;21008730;28;20162;-77
2022/04/03 04:06:54;;;;;;;29.83;15.27;;;0.50;99.90;;;;;;21007258;28;20044;-78
2022/04/03 04:16:55;;;;;;;28.17;14.43;;;0.50;99.90;;;;;;21007220;28;20033;-78
2022/04/03 04:26:55;;;;;;;26.00;13.73;;;0.60;99.90;;;;;;21006910;28;20039;-77
2022/04/03 04:36:58;;;;;;;28.80;14.77;;;0.60;99.90;;;;;;21008299;28;20037;-78
2022/04/03 04:46:58;;;;;;;26.73;13.50;;;0.50;99.90;;;;;;21006932;28;20035;-78
2022/04/03 04:56:59;;;;;;;29.40;14.10;;;0.60;99.90;;;;;;21007563;28;20028;-78
2022/04/03 05:07:00;;;;;;;35.10;16.48;;;0.60;99.90;;;;;;21008663;28;20021;-78
2022/04/03 05:17:02;;;;;;;39.33;17.50;;;0.60;99.90;;;;;;21007739;28;20158;-77
2022/04/03 05:27:05;;;;;;;38.53;17.35;;;0.40;99.90;;;;;;20996828;28;20029;-77
2022/04/03 05:37:07;;;;;;;38.20;16.38;;;0.50;99.90;;;;;;20995487;28;20080;-78
2022/04/03 05:47:08;;;;;;;39.70;17.83;;;0.50;99.90;;;;;;20995138;28;20029;-77
2022/04/03 05:57:10;;;;;;;42.35;18.00;;;0.60;99.90;;;;;;20994424;28;20055;-77
2022/04/03 06:07:11;;;;;;;36.13;17.20;;;0.70;99.90;;;;;;20994094;28;20520;-77
2022/04/03 06:17:11;;;;;;;34.42;15.88;;;0.70;99.90;;;;;;20992580;28;20033;-76
2022/04/03 06:27:13;;;;;;;36.67;17.10;;;0.80;99.90;;;;;;20991432;28;20433;-77
2022/04/03 06:37:13;;;;;;;34.03;16.98;;;0.80;99.90;;;;;;20993819;28;20067;-78
2022/04/03 06:47:14;;;;;;;37.65;17.40;;;1.00;99.90;;;;;;20993506;28;20043;-78
2022/04/03 06:57:16;;;;;;;34.22;16.65;;;1.20;99.90;;;;;;20993455;28;20498;-77
2022/04/03 07:07:24;;;;;;;32.70;16.48;;;1.40;99.90;;;;;;20991235;28;20601;-78
2022/04/03 07:17:25;;;;;;;73.63;34.75;;;1.40;99.90;;;;;;20990359;28;20028;-77
2022/04/03 07:27:27;;;;;;;43.10;18.13;;;1.70;99.90;;;;;;20988104;28;20025;-75
2022/04/03 07:37:28;;;;;;;28.67;14.43;;;2.00;99.90;;;;;;20979070;28;20033;-77
2022/04/03 07:47:29;;;;;;;19.25;11.45;;;2.50;99.90;;;;;;20958988;28;20090;-76
2022/04/03 07:57:29;;;;;;;17.42;11.18;;;2.90;99.90;;;;;;20915035;28;20360;-75
2022/04/03 08:07:48;;;;;;;13.80;7.72;;;3.20;99.90;;;;;;20981333;28;20032;-76
2022/04/03 08:17:49;;;;;;;13.55;7.82;;;3.40;99.90;;;;;;20973399;28;20550;-76
2022/04/03 08:27:53;;;;;;;12.75;7.82;;;3.80;99.90;;;;;;20906588;28;20040;-75
2022/04/03 08:37:56;;;;;;;13.02;7.50;;;4.50;99.90;;;;;;20901277;28;20411;-75
2022/04/03 08:48:00;;;;;;;16.33;9.95;;;4.70;99.90;;;;;;20929538;28;20119;-76
2022/04/03 08:58:02;;;;;;;12.05;7.60;;;5.00;99.90;;;;;;20903758;28;20029;-76
2022/04/03 09:08:04;;;;;;;13.90;6.93;;;4.70;99.90;;;;;;20894865;28;20041;-75
2022/04/03 09:18:06;;;;;;;12.13;7.03;;;4.00;99.90;;;;;;20893488;28;20392;-75
2022/04/03 09:28:08;;;;;;;13.52;8.20;;;3.80;99.90;;;;;;20828081;28;20036;-76
2022/04/03 09:38:17;;;;;;;9.75;5.72;;;3.50;99.90;;;;;;20810342;28;20033;-76
2022/04/03 09:48:26;;;;;;;11.07;6.18;;;3.20;99.90;;;;;;20850108;22;20135;-73
2022/04/03 09:58:27;;;;;;;11.88;6.68;;;3.30;99.90;;;;;;20886249;28;20094;-73
2022/04/03 10:08:28;;;;;;;;;;;3.70;99.90;;;;;;20889972;28;20033;-73
2022/04/03 10:18:29;;;;;;;12.43;7.65;;;4.10;99.90;;;;;;20889794;28;20342;-72
2022/04/03 10:28:30;;;;;;;;;;;3.70;99.90;;;;;;20812246;28;20037;-73
2022/04/03 10:38:36;;;;;;;11.60;6.45;;;3.80;99.90;;;;;;20805666;28;20447;-73
2022/04/03 10:48:37;;;;;;;10.32;6.22;;;3.80;99.90;;;;;;20844085;28;20494;-73
2022/04/03 10:58:38;;;;;;;;;;;3.80;99.90;;;;;;20887546;28;20063;-73
2022/04/03 11:08:44;;;;;;;9.50;5.73;;;3.80;99.90;;;;;;20869225;28;19916;-73
2022/04/03 11:18:48;;;;;;;9.80;5.90;;;3.70;99.90;;;;;;20878764;28;20463;-73
2022/04/03 11:28:49;;;;;;;54.78;24.40;;;4.10;99.90;;;;;;20902223;28;20043;-74
2022/04/03 11:38:50;;;;;;;;;;;4.50;99.90;;;;;;20902512;28;20033;-74
2022/04/03 11:48:51;;;;;;;9.50;5.65;;;4.20;99.90;;;;;;20954544;28;19962;-74
2022/04/03 11:58:56;;;;;;;;;;;4.00;99.90;;;;;;20823195;28;20033;-74
2022/04/03 12:08:58;;;;;;;8.45;5.70;;;3.80;99.90;;;;;;20798834;28;19917;-73
2022/04/03 12:19:03;;;;;;;9.55;5.68;;;3.90;99.90;;;;;;20816529;28;20091;-75
2022/04/03 12:29:08;;;;;;;10.73;6.13;;;3.90;99.90;;;;;;20945680;28;20036;-73
2022/04/03 12:39:30;;;;;;;7.22;5.30;;;3.80;99.90;;;;;;20979894;28;20036;-74
2022/04/03 12:49:30;;;;;;;;;;;4.00;99.90;;;;;;20933465;28;20068;-73
2022/04/03 12:59:37;;;;;;;15.93;9.88;;;4.10;99.90;;;;;;20894397;28;20059;-73
2022/04/03 13:09:46;;;;;;;11.50;5.95;;;4.00;99.90;;;;;;20836864;28;20081;-73
2022/04/03 13:19:46;;;;;;;14.07;7.97;;;3.80;99.90;;;;;;20887743;28;20594;-74
2022/04/03 13:29:47;;;;;;;;;;;4.10;99.90;;;;;;20875933;28;20037;-73
2022/04/03 13:39:48;;;;;;;11.90;7.80;;;4.30;99.90;;;;;;20892063;28;20203;-73
2022/04/03 13:49:49;;;;;;;13.35;7.40;;;3.90;99.90;;;;;;20924792;28;20634;-73
2022/04/03 13:59:50;;;;;;;;;;;4.40;99.90;;;;;;20893433;28;20025;-73
2022/04/03 14:09:51;;;;;;;12.82;5.97;;;4.50;99.90;;;;;;20892278;28;19990;-73
2022/04/03 14:19:52;;;;;;;7.63;5.83;;;4.70;99.90;;;;;;20860321;28;20029;-74
2022/04/03 14:29:55;;;;;;;10.33;5.53;;;4.70;99.90;;;;;;20855608;28;20346;-73
2022/04/03 14:39:55;;;;;;;7.57;4.18;;;4.40;99.90;;;;;;20873099;28;20354;-74
2022/04/03 14:49:57;;;;;;;;;;;4.00;99.90;;;;;;20943851;28;20476;-73
2022/04/03 15:00:04;;;;;;;6.45;4.28;;;4.30;99.90;;;;;;20949177;28;19908;-74
2022/04/03 15:10:07;;;;;;;9.55;4.72;;;4.30;99.90;;;;;;20947054;28;20050;-73
2022/04/03 15:20:08;;;;;;;7.88;4.63;;;4.00;99.90;;;;;;20982264;28;20033;-73
2022/04/03 15:30:10;;;;;;;9.30;5.68;;;3.90;99.90;;;;;;20990068;28;20043;-73
2022/04/03 15:40:11;;;;;;;11.63;6.57;;;4.10;99.90;;;;;;20970923;28;20101;-73
2022/04/03 15:50:13;;;;;;;11.32;7.80;;;4.00;99.90;;;;;;20954826;22;20043;-75
2022/04/03 16:00:14;;;;;;;10.63;6.30;;;4.10;99.90;;;;;;20916900;28;20040;-75
2022/04/03 16:10:27;;;;;;;11.38;6.38;;;4.00;99.90;;;;;;20912530;28;20025;-75
2022/04/03 16:20:28;;;;;;;12.40;6.90;;;3.60;99.90;;;;;;20906870;28;20112;-74
2022/04/03 16:30:29;;;;;;;;;;;3.90;99.90;;;;;;20899698;28;20484;-75
2022/04/03 16:40:30;;;;;;;8.75;5.50;;;3.90;99.90;;;;;;20916603;28;20338;-75
2022/04/03 16:50:31;;;;;;;;;;;3.90;99.90;;;;;;20916151;28;20037;-75
2022/04/03 17:00:32;;;;;;;68.40;20.48;;;3.80;99.90;;;;;;20915306;28;19935;-76
2022/04/03 17:10:32;;;;;;;;;;;3.70;99.90;;;;;;20896674;28;20084;-75
2022/04/03 17:20:38;;;;;;;12.13;7.75;;;3.50;99.90;;;;;;20896805;28;19909;-75
2022/04/03 17:30:38;;;;;;;9.90;5.28;;;3.60;99.90;;;;;;20912496;28;20045;-75
2022/04/03 17:40:39;;;;;;;;;;;3.40;99.90;;;;;;20912030;28;20146;-74
2022/04/03 17:50:43;;;;;;;11.88;5.53;;;3.20;99.90;;;;;;20911294;28;19912;-75
2022/04/03 18:00:45;;;;;;;8.77;5.97;;;3.10;99.90;;;;;;20910273;28;20056;-75
2022/04/03 18:11:04;;;;;;;11.68;5.85;;;3.00;99.90;;;;;;20891681;28;20041;-76
2022/04/03 18:21:08;;;;;;;8.18;5.55;;;2.90;99.90;;;;;;20909195;28;20029;-76
2022/04/03 18:31:09;;;;;;;9.65;5.70;;;2.80;99.90;;;;;;20888347;28;20033;-75
2022/04/03 18:41:09;;;;;;;10.85;6.00;;;2.80;99.90;;;;;;20889734;28;20553;-76
2022/04/03 18:51:10;;;;;;;11.80;6.10;;;2.80;99.90;;;;;;20906452;28;20048;-76
2022/04/03 19:01:11;;;;;;;11.27;6.22;;;2.80;99.90;;;;;;20888822;28;20130;-76
2022/04/03 19:11:12;;;;;;;9.48;5.45;;;2.70;99.90;;;;;;20906462;28;20387;-76
2022/04/03 19:21:13;;;;;;;;;;;2.60;99.90;;;;;;20906588;28;20037;-76
2022/04/03 19:31:15;;;;;;;9.25;5.40;;;2.50;99.90;;;;;;20905813;28;19942;-76
2022/04/03 19:41:16;;;;;;;9.63;5.68;;;2.40;99.90;;;;;;20917398;28;20029;-76
2022/04/03 19:51:17;;;;;;;11.13;5.30;;;2.40;99.90;;;;;;20920494;28;20128;-75
2022/04/03 20:01:18;;;;;;;9.93;6.20;;;2.30;99.90;;;;;;20890373;28;20376;-75
2022/04/03 20:11:19;;;;;;;10.23;5.57;;;2.20;99.90;;;;;;20810645;28;20060;-75
2022/04/03 20:21:21;;;;;;;10.15;6.35;;;2.20;99.90;;;;;;20817268;28;20053;-76
2022/04/03 20:31:21;;;;;;;11.23;5.43;;;2.30;99.90;;;;;;20823490;28;20034;-74
2022/04/03 20:41:26;;;;;;;8.90;5.68;;;2.20;99.90;;;;;;20820846;28;20035;-76
2022/04/03 20:51:28;;;;;;;9.00;5.40;;;2.00;99.90;;;;;;20813038;28;20033;-75
2022/04/03 21:01:30;;;;;;;8.88;4.60;;;1.90;99.90;;;;;;20795471;28;20053;-76
2022/04/03 21:11:31;;;;;;;11.15;5.07;;;1.90;99.90;;;;;;20816898;28;20068;-74
2022/04/03 21:21:32;;;;;;;11.35;4.85;;;1.70;99.90;;;;;;20801425;28;20068;-75
2022/04/03 21:31:33;;;;;;;7.10;4.53;;;1.40;99.90;;;;;;20832725;28;20026;-75
2022/04/03 21:41:33;;;;;;;9.65;4.78;;;1.30;99.90;;;;;;20829722;28;20033;-75
2022/04/03 21:51:34;;;;;;;6.68;4.22;;;1.10;99.90;;;;;;20902375;22;20037;-76
2022/04/03 22:01:37;;;;;;;14.65;4.53;;;0.90;99.90;;;;;;20892814;28;20040;-75
2022/04/03 22:11:38;;;;;;;6.55;3.53;;;0.80;99.90;;;;;;20892152;28;20033;-76
2022/04/03 22:21:39;;;;;;;9.63;5.47;;;0.50;99.90;;;;;;20909144;28;20036;-76
2022/04/03 22:31:39;;;;;;;9.55;4.70;;;0.20;99.90;;;;;;20908267;28;20025;-76
2022/04/03 22:41:40;;;;;;;7.15;4.70;;;0.20;99.90;;;;;;20907627;28;20036;-76
2022/04/03 22:51:41;;;;;;;8.73;5.03;;;-0.20;99.90;;;;;;20907158;28;20566;-76
2022/04/03 23:01:42;;;;;;;8.77;4.90;;;-0.20;99.90;;;;;;20907307;28;20052;-76
2022/04/03 23:11:43;;;;;;;8.35;4.78;;;-0.20;99.90;;;;;;20912225;28;20032;-74
2022/04/03 23:21:44;;;;;;;7.75;4.78;;;-0.20;99.90;;;;;;20923573;28;20112;-76
2022/04/03 23:31:45;;;;;;;10.40;4.90;;;-0.20;99.90;;;;;;20923122;28;20053;-75
2022/04/03 23:41:46;;;;;;;7.75;4.63;;;-0.20;99.90;;;;;;20888504;28;20037;-75
2022/04/03 23:51:47;;;;;;;8.65;5.40;;;-0.20;99.90;;;;;;20921705;28;20029;-76
